Stephen Reinauer — WCA3763 — position and weather

sailwx.info

Track history (hours):
 
Tides and Currents Weather Stations Pressure Air Temp Water Temp Dewpoint Dewpoint Depression Visibility Wind Speed Wind Dir Waves Ship Positions

Stephen Reinauer

Owner: REINAUER, HAROLD A, STATEN ISLAND, NY. More information available from US FCC via Universal Licensing System and Coast Guard Vessel Documentation Center.

Last reported at 2018-Jun-22 05:29 UTC. Time now 2018-Jun-22 05:43 UTC.
Position N 41°55' W 070°27'.

Length 33 m.

Type: Tanker. MMSI: 366516370.

Date/timePositionNaut miles runAvg speedWind from/ knotsBaromVisibWave heightAir tempDewpointWater temp
2018-Jun-22 05:29N 41°55' W 070°27'5 8.3
2018-Jun-22 04:50N 41°50' W 070°28'3 7.8
2018-Jun-22 04:30N 41°47' W 070°29'175 7.8
2018-Jun-21 06:05N 40°30' W 073°57'3 7.2
2018-Jun-21 05:36N 40°32' W 074°01'1 6.7
2018-Jun-21 05:30N 40°32' W 074°01'4 7.5
2018-Jun-21 05:01N 40°36' W 074°03'4 7.2
2018-Jun-21 04:30N 40°39' W 074°04'3 5.5
2018-Jun-21 04:00N 40°39' W 074°08'3 5.5
2018-Jun-21 03:25N 40°38' W 074°12'2 0.1
2018-Jun-20 03:44N 40°36' W 074°12'2 6.1
2018-Jun-20 03:21N 40°38' W 074°12'3 8.2
2018-Jun-20 03:00N 40°39' W 074°08'4 8.2
2018-Jun-20 02:30N 40°39' W 074°03'0 0.1
2018-Jun-20 02:01N 40°39' W 074°03'0 0.0
2018-Jun-20 01:31N 40°39' W 074°03'0 0.0
2018-Jun-20 01:01N 40°39' W 074°03'0 0.0
2018-Jun-20 00:31N 40°39' W 074°03'0 0.0
2018-Jun-20 00:01N 40°39' W 074°03'0 0.0
2018-Jun-19 23:30N 40°39' W 074°03'0 0.0
2018-Jun-19 23:01N 40°39' W 074°03'0 0.0
2018-Jun-19 22:29N 40°39' W 074°03'0 0.0
2018-Jun-19 22:00N 40°39' W 074°03'0 0.0
2018-Jun-19 21:30N 40°39' W 074°03'0 0.0
2018-Jun-19 21:01N 40°39' W 074°03'0 0.2
2018-Jun-19 20:30N 40°39' W 074°03'0 0.2
2018-Jun-19 20:00N 40°39' W 074°03'0 0.0
2018-Jun-19 19:30N 40°39' W 074°03'0 0.1
2018-Jun-19 19:00N 40°39' W 074°03'0 0.1
2018-Jun-19 18:30N 40°39' W 074°03'0 0.0
2018-Jun-19 18:01N 40°39' W 074°03'0 0.0
2018-Jun-19 17:30N 40°39' W 074°03'0 0.2
2018-Jun-19 17:01N 40°39' W 074°03'0 0.2
2018-Jun-19 16:31N 40°39' W 074°03'0 0.0
2018-Jun-19 16:00N 40°39' W 074°03'0 0.1
2018-Jun-19 15:30N 40°39' W 074°03'1 2.8
2018-Jun-19 15:01N 40°39' W 074°05'2 4.8
2018-Jun-19 14:31N 40°38' W 074°08'0 0.0
2018-Jun-19 14:00N 40°38' W 074°08'0 0.0
2018-Jun-19 13:30N 40°38' W 074°08'0 0.0
2018-Jun-19 13:00N 40°38' W 074°08'0 0.0
2018-Jun-19 12:30N 40°38' W 074°08'4 7.6
2018-Jun-19 12:00N 40°39' W 074°03'0 0.0
2018-Jun-19 11:30N 40°39' W 074°03'0 0.0
2018-Jun-19 11:00N 40°39' W 074°03'0 0.0
2018-Jun-19 10:30N 40°39' W 074°03'0 0.0
2018-Jun-19 10:00N 40°39' W 074°03'0 0.0
2018-Jun-19 09:30N 40°39' W 074°03'0 0.1
2018-Jun-19 09:01N 40°39' W 074°03'0 0.2
2018-Jun-19 08:31N 40°39' W 074°03'0 0.1
2018-Jun-19 08:01N 40°39' W 074°03'0 0.1
2018-Jun-19 07:31N 40°39' W 074°03'0 0.1
2018-Jun-19 07:01N 40°39' W 074°03'0 0.1
2018-Jun-19 06:30N 40°39' W 074°03'0 0.0
2018-Jun-19 06:01N 40°39' W 074°03'0 0.0
2018-Jun-19 05:30N 40°39' W 074°03'0 0.1
2018-Jun-19 05:00N 40°39' W 074°03'0 0.0
2018-Jun-19 04:31N 40°39' W 074°03'0 0.0
2018-Jun-19 04:00N 40°39' W 074°03'0 0.0
2018-Jun-19 03:30N 40°39' W 074°03'0 0.1
2018-Jun-19 03:00N 40°39' W 074°03'0 0.1
2018-Jun-19 02:30N 40°39' W 074°03'0 0.1
2018-Jun-19 02:01N 40°39' W 074°03'0 0.1
2018-Jun-19 01:30N 40°39' W 074°03'0 0.1
2018-Jun-19 01:00N 40°39' W 074°03'0 0.3
2018-Jun-19 00:31N 40°39' W 074°03'0 0.1
2018-Jun-19 00:01N 40°39' W 074°03'2 3.4
2018-Jun-18 23:31N 40°39' W 074°05'2 4.1
2018-Jun-18 23:00N 40°38' W 074°08'0 0.0
2018-Jun-18 22:31N 40°38' W 074°08'1 1.4
2018-Jun-18 22:00N 40°39' W 074°07'5 9.3
2018-Jun-18 21:31N 40°40' W 074°01'0 0.0
2018-Jun-18 21:00N 40°40' W 074°01'0 0.2
2018-Jun-18 20:30N 40°40' W 074°01'0 0.0
2018-Jun-18 20:00N 40°40' W 074°01'0 0.0
2018-Jun-18 19:31N 40°40' W 074°01'0 0.1
2018-Jun-18 19:00N 40°40' W 074°01'0 0.2
2018-Jun-18 18:30N 40°40' W 074°01'1 2.9
2018-Jun-18 18:00N 40°40' W 074°03'1 1.1
2018-Jun-18 17:30N 40°40' W 074°02'0 0.0
2018-Jun-18 17:00N 40°40' W 074°02'0 0.0
2018-Jun-18 16:30N 40°40' W 074°02'0 0.0
2018-Jun-18 16:01N 40°40' W 074°02'0 0.1
2018-Jun-18 15:30N 40°39' W 074°02'1 1.3
2018-Jun-18 15:01N 40°39' W 074°03'4 7.5
2018-Jun-18 14:31N 40°39' W 074°08'2 4.6
2018-Jun-18 13:59N 40°39' W 074°11'3 1.3
2018-Jun-18 12:05N 40°36' W 074°12'0 0.0
2018-Jun-18 11:59N 40°36' W 074°12'0 0.0
2018-Jun-18 11:11N 40°36' W 074°12'0 0.0
2018-Jun-18 10:50N 40°36' W 074°12'0 0.0
2018-Jun-18 10:27N 40°36' W 074°12'0 0.0
2018-Jun-18 10:00N 40°36' W 074°12'0 0.0
2018-Jun-18 09:30N 40°36' W 074°12'0 0.0
2018-Jun-18 09:00N 40°36' W 074°12'0 0.0
2018-Jun-18 08:29N 40°36' W 074°12'0 0.0
2018-Jun-18 08:00N 40°36' W 074°12'0 0.0
2018-Jun-18 07:30N 40°36' W 074°12'0 0.0
2018-Jun-18 07:00N 40°36' W 074°12'0 0.0
2018-Jun-18 06:30N 40°36' W 074°12'1 0.1
2018-Jun-17 19:08N 40°37' W 074°12'1 6.6
2018-Jun-17 18:59N 40°38' W 074°12'4 6.3
2018-Jun-17 18:26N 40°39' W 074°07'3 6.7
2018-Jun-17 18:01N 40°39' W 074°04'1 1.7
2018-Jun-17 17:30N 40°39' W 074°03'0 0.0
2018-Jun-17 17:01N 40°39' W 074°03'0 0.0
2018-Jun-17 16:30N 40°39' W 074°03'0 0.1
2018-Jun-17 16:00N 40°39' W 074°03'0 0.1
2018-Jun-17 15:26N 40°39' W 074°03'0 0.0
2018-Jun-17 15:00N 40°39' W 074°03'0 0.0
2018-Jun-17 14:30N 40°39' W 074°03'0 0.0
2018-Jun-17 14:00N 40°39' W 074°03'0 0.1
2018-Jun-17 13:30N 40°39' W 074°03'0 0.1
2018-Jun-17 13:01N 40°39' W 074°03'0 0.2
2018-Jun-17 12:30N 40°39' W 074°03'0 0.1
2018-Jun-17 12:00N 40°39' W 074°03'0 0.1
2018-Jun-17 11:30N 40°39' W 074°03'0 0.0
2018-Jun-17 11:01N 40°39' W 074°03'0 0.0
2018-Jun-17 10:30N 40°39' W 074°03'0 0.0
2018-Jun-17 10:01N 40°39' W 074°03'0 0.0
2018-Jun-17 09:29N 40°39' W 074°03'0 0.0
2018-Jun-17 09:01N 40°39' W 074°03'0 0.1
2018-Jun-17 08:30N 40°39' W 074°03'0 0.0
2018-Jun-17 08:00N 40°39' W 074°03'0 0.0
2018-Jun-17 07:31N 40°39' W 074°03'0 0.0
2018-Jun-17 07:00N 40°39' W 074°03'0 0.0
2018-Jun-17 06:31N 40°39' W 074°03'0 0.0
2018-Jun-17 06:01N 40°39' W 074°03'0 0.2
2018-Jun-17 05:30N 40°39' W 074°03'0 0.2
2018-Jun-17 05:00N 40°39' W 074°03'0 0.1
2018-Jun-17 04:31N 40°39' W 074°03'0 0.0
2018-Jun-17 04:01N 40°39' W 074°03'1 2.0
2018-Jun-17 03:30N 40°40' W 074°02'1 2.2
2018-Jun-17 03:00N 40°41' W 074°01'3 5.9
2018-Jun-17 02:31N 40°43' W 073°58'55 7.5
2018-Jun-16 19:05N 41°05' W 072°51'1 9.0
2018-Jun-16 18:58N 41°06' W 072°50'4 9.1
2018-Jun-16 18:31N 41°07' W 072°45'5 9.2
2018-Jun-16 18:00N 41°08' W 072°39'5 9.6
2018-Jun-16 17:31N 41°09' W 072°32'510.5
2018-Jun-16 17:00N 41°10' W 072°26'611.1
2018-Jun-16 16:31N 41°12' W 072°19'611.1
2018-Jun-16 16:00N 41°13' W 072°11'53 9.7
2018-Jun-16 10:34N 41°25' W 071°03'1 9.4
2018-Jun-16 10:26N 41°26' W 071°02'4 9.2
2018-Jun-16 10:00N 41°28' W 070°58'5 9.6
2018-Jun-16 09:30N 41°30' W 070°52'28 8.8
2018-Jun-16 06:17N 41°52' W 070°28'3 9.3
2018-Jun-16 05:58N 41°55' W 070°28'4 9.2
2018-Jun-16 05:30N 41°59' W 070°27'5 9.4
2018-Jun-16 05:01N 42°04' W 070°26'5 9.5
2018-Jun-16 04:30N 42°08' W 070°25'5 9.6
2018-Jun-16 04:00N 42°13' W 070°24'510.0
2018-Jun-16 03:30N 42°18' W 070°24'5 9.6
2018-Jun-16 03:00N 42°23' W 070°23'5 9.8
2018-Jun-16 02:30N 42°28' W 070°22'5 9.6
2018-Jun-16 02:00N 42°32' W 070°20'5 9.4
2018-Jun-16 01:30N 42°37' W 070°19'5 9.1
2018-Jun-16 01:00N 42°42' W 070°18'4 8.9
2018-Jun-16 00:30N 42°46' W 070°18'5 9.2
2018-Jun-16 00:00N 42°51' W 070°16'5 9.4
2018-Jun-15 23:30N 42°55' W 070°15'5 9.3
2018-Jun-15 23:00N 42°60' W 070°14'5 9.1
2018-Jun-15 22:30N 43°04' W 070°13'15 8.8
2018-Jun-15 20:49N 43°19' W 070°11'3 8.8
2018-Jun-15 20:31N 43°22' W 070°10'4 8.8
2018-Jun-15 20:00N 43°26' W 070°09'4 8.8
2018-Jun-15 19:30N 43°30' W 070°08'4 8.8
2018-Jun-15 19:00N 43°35' W 070°09'5 9.3
2018-Jun-15 18:30N 43°38' W 070°13'2 4.0
2018-Jun-15 18:00N 43°39' W 070°16'1 1.8
2018-Jun-15 17:30N 43°38' W 070°17'0 0.0
2018-Jun-15 17:00N 43°38' W 070°17'0 0.0
2018-Jun-15 16:30N 43°38' W 070°17'0 0.0
2018-Jun-15 16:00N 43°38' W 070°17'0 0.0
2018-Jun-15 15:30N 43°38' W 070°17'0 0.0
2018-Jun-15 15:00N 43°38' W 070°17'0 0.0
2018-Jun-15 14:30N 43°38' W 070°17'0 0.0
2018-Jun-15 14:00N 43°38' W 070°17'0 0.0
2018-Jun-15 13:29N 43°38' W 070°17'0 0.0
2018-Jun-15 12:59N 43°38' W 070°17'0 0.0
2018-Jun-15 12:29N 43°38' W 070°17'0 0.0
2018-Jun-15 11:59N 43°38' W 070°17'0 0.0
2018-Jun-15 11:29N 43°38' W 070°17'0 0.0
2018-Jun-15 10:59N 43°38' W 070°17'0 0.0
2018-Jun-15 10:29N 43°38' W 070°17'0 0.0
2018-Jun-15 09:59N 43°38' W 070°17'0 0.0
2018-Jun-15 09:29N 43°38' W 070°17'0 0.0
2018-Jun-15 08:59N 43°38' W 070°17'0 0.0
2018-Jun-15 08:30N 43°38' W 070°17'0 0.0
2018-Jun-15 08:00N 43°38' W 070°17'0 0.0
2018-Jun-15 07:30N 43°38' W 070°17'0 0.0
2018-Jun-15 07:00N 43°38' W 070°17'0 0.0
2018-Jun-15 06:30N 43°38' W 070°17'0 0.0
2018-Jun-15 06:00N 43°38' W 070°17'0 0.0
2018-Jun-15 05:30N 43°38' W 070°17'0 0.0
2018-Jun-15 05:00N 43°38' W 070°17'0 0.0
2018-Jun-15 04:30N 43°38' W 070°17'0 0.0
2018-Jun-15 04:00N 43°38' W 070°17'0 0.1
2018-Jun-15 03:31N 43°38' W 070°17'0 0.2
2018-Jun-15 03:00N 43°38' W 070°17'2 3.8
2018-Jun-15 02:30N 43°39' W 070°15'3 5.4
2018-Jun-15 02:00N 43°37' W 070°12'4 8.5
2018-Jun-15 01:30N 43°34' W 070°09'4 8.1
2018-Jun-15 01:00N 43°30' W 070°08'4 8.6
2018-Jun-15 00:30N 43°26' W 070°09'28 8.5
2018-Jun-14 21:12N 42°58' W 070°14'2 8.3
2018-Jun-14 20:56N 42°56' W 070°15'3 8.1
2018-Jun-14 20:30N 42°52' W 070°16'4 8.0
2018-Jun-14 20:00N 42°48' W 070°16'4 8.1
2018-Jun-14 19:30N 42°44' W 070°17'4 8.2
2018-Jun-14 19:00N 42°40' W 070°18'4 8.2
2018-Jun-14 18:29N 42°36' W 070°19'4 8.5
2018-Jun-14 18:00N 42°32' W 070°20'4 8.4
2018-Jun-14 17:30N 42°28' W 070°20'4 8.4
2018-Jun-14 17:00N 42°24' W 070°21'4 8.5
2018-Jun-14 16:30N 42°19' W 070°22'102 6.0
2018-Jun-13 23:27N 41°14' W 072°07'4 7.8
2018-Jun-13 23:00N 41°13' W 072°11'4 8.7
2018-Jun-13 22:30N 41°11' W 072°17'4 9.1
2018-Jun-13 22:00N 41°10' W 072°23'5 9.5
2018-Jun-13 21:30N 41°09' W 072°29'5 9.8
2018-Jun-13 20:59N 41°08' W 072°36'5 9.9
2018-Jun-13 20:28N 41°07' W 072°42'59 8.6
2018-Jun-13 13:34N 40°47' W 073°56'1 7.6
2018-Jun-13 13:25N 40°46' W 073°57'3 6.9
2018-Jun-13 13:00N 40°43' W 073°58'3 6.9
2018-Jun-13 12:30N 40°41' W 074°01'1 1.2
2018-Jun-13 12:00N 40°40' W 074°02'0 0.3
2018-Jun-13 11:30N 40°40' W 074°02'0 0.2
2018-Jun-13 11:00N 40°40' W 074°02'0 0.8
2018-Jun-13 10:30N 40°40' W 074°03'0 0.9
2018-Jun-13 10:00N 40°40' W 074°03'3 5.5
2018-Jun-13 09:30N 40°39' W 074°06'3 6.6
2018-Jun-13 09:00N 40°39' W 074°11'2 2.0
2018-Jun-13 08:11N 40°38' W 074°12'0 0.1
2018-Jun-13 08:00N 40°38' W 074°12'0 0.0
2018-Jun-13 07:30N 40°38' W 074°12'0 0.0
2018-Jun-13 07:00N 40°38' W 074°12'0 0.0
2018-Jun-13 06:30N 40°38' W 074°12'0 0.0
2018-Jun-13 06:00N 40°38' W 074°12'0 0.0
2018-Jun-13 05:30N 40°38' W 074°12'0 0.0
2018-Jun-13 05:00N 40°38' W 074°12'0 0.0
2018-Jun-13 04:30N 40°38' W 074°12'0 0.0
2018-Jun-13 04:00N 40°38' W 074°12'0 0.0
2018-Jun-13 03:30N 40°38' W 074°12'0 0.0
2018-Jun-13 03:00N 40°38' W 074°12'0 0.0
2018-Jun-13 02:30N 40°38' W 074°12'0 0.0
2018-Jun-13 02:00N 40°38' W 074°12'0 0.0
2018-Jun-13 01:30N 40°38' W 074°12'0 0.0
2018-Jun-13 01:00N 40°38' W 074°12'0 0.0
2018-Jun-13 00:30N 40°38' W 074°12'0 0.0
2018-Jun-13 00:00N 40°38' W 074°12'0 0.0
2018-Jun-12 23:30N 40°38' W 074°12'0 0.0
2018-Jun-12 23:00N 40°38' W 074°12'0 0.0
2018-Jun-12 22:30N 40°38' W 074°12'0 0.0
2018-Jun-12 22:00N 40°38' W 074°12'0 0.0
2018-Jun-12 21:30N 40°38' W 074°12'0 0.0
2018-Jun-12 21:00N 40°38' W 074°12'0 0.0
2018-Jun-12 20:30N 40°38' W 074°12'0 0.0
2018-Jun-12 20:00N 40°38' W 074°12'0 0.0
2018-Jun-12 19:30N 40°38' W 074°12'0 0.0
2018-Jun-12 19:00N 40°38' W 074°12'0 0.0
2018-Jun-12 18:30N 40°38' W 074°12'0 0.0
2018-Jun-12 18:00N 40°38' W 074°12'0 0.0
2018-Jun-12 17:30N 40°38' W 074°12'0 0.0
2018-Jun-12 17:00N 40°38' W 074°12'0 0.0
2018-Jun-12 16:30N 40°38' W 074°12'0 0.0
2018-Jun-12 16:00N 40°38' W 074°12'0 0.0
2018-Jun-12 15:30N 40°38' W 074°12'0 0.0
2018-Jun-12 15:00N 40°38' W 074°12'0 0.0
2018-Jun-12 14:30N 40°38' W 074°12'0 0.0
2018-Jun-12 14:00N 40°38' W 074°12'0 0.0
2018-Jun-12 13:30N 40°38' W 074°12'0 0.0
2018-Jun-12 13:00N 40°38' W 074°12'0 0.0
2018-Jun-12 12:30N 40°38' W 074°12'0 0.0
2018-Jun-12 11:59N 40°38' W 074°12'0 0.0
2018-Jun-12 11:30N 40°38' W 074°12'0 0.0
2018-Jun-12 10:59N 40°38' W 074°12'0 0.0
2018-Jun-12 09:54N 40°38' W 074°12'0 0.0
2018-Jun-12 09:24N 40°38' W 074°12'0 0.0
2018-Jun-12 08:44N 40°38' W 074°12'0 0.1
2018-Jun-12 08:28N 40°38' W 074°12'0 0.0
2018-Jun-12 07:58N 40°38' W 074°12'1 1.1
2018-Jun-12 07:20N 40°38' W 074°12'2 5.3
2018-Jun-12 06:59N 40°39' W 074°09'4 8.2
2018-Jun-12 06:29N 40°39' W 074°04'3 4.9
2018-Jun-12 05:57N 40°40' W 074°01'0 0.0
2018-Jun-12 05:30N 40°40' W 074°01'  
Track history (hours):
 
Tides and Currents Weather Stations Pressure Air Temp Water Temp Dewpoint Dewpoint Depression Visibility Wind Speed Wind Dir Waves Ship Positions

Stephen Reinauer

Owner: REINAUER, HAROLD A, STATEN ISLAND, NY. More information available from US FCC via Universal Licensing System and Coast Guard Vessel Documentation Center.

Last reported at 2018-Jun-22 05:29 UTC. Time now 2018-Jun-22 05:43 UTC.
Position N 41°55' W 070°27'.

Length 33 m.

Type: Tanker. MMSI: 366516370.

Date/timePositionNaut miles runAvg speedWind from/ knotsBaromVisibWave heightAir tempDewpointWater temp
2018-Jun-22 05:29N 41°55' W 070°27'5 8.3
2018-Jun-22 04:50N 41°50' W 070°28'3 7.8
2018-Jun-22 04:30N 41°47' W 070°29'175 7.8
2018-Jun-21 06:05N 40°30' W 073°57'3 7.2
2018-Jun-21 05:36N 40°32' W 074°01'1 6.7
2018-Jun-21 05:30N 40°32' W 074°01'4 7.5
2018-Jun-21 05:01N 40°36' W 074°03'4 7.2
2018-Jun-21 04:30N 40°39' W 074°04'3 5.5
2018-Jun-21 04:00N 40°39' W 074°08'3 5.5
2018-Jun-21 03:25N 40°38' W 074°12'2 0.1
2018-Jun-20 03:44N 40°36' W 074°12'2 6.1
2018-Jun-20 03:21N 40°38' W 074°12'3 8.2
2018-Jun-20 03:00N 40°39' W 074°08'4 8.2
2018-Jun-20 02:30N 40°39' W 074°03'0 0.1
2018-Jun-20 02:01N 40°39' W 074°03'0 0.0
2018-Jun-20 01:31N 40°39' W 074°03'0 0.0
2018-Jun-20 01:01N 40°39' W 074°03'0 0.0
2018-Jun-20 00:31N 40°39' W 074°03'0 0.0
2018-Jun-20 00:01N 40°39' W 074°03'0 0.0
2018-Jun-19 23:30N 40°39' W 074°03'0 0.0
2018-Jun-19 23:01N 40°39' W 074°03'0 0.0
2018-Jun-19 22:29N 40°39' W 074°03'0 0.0
2018-Jun-19 22:00N 40°39' W 074°03'0 0.0
2018-Jun-19 21:30N 40°39' W 074°03'0 0.0
2018-Jun-19 21:01N 40°39' W 074°03'0 0.2
2018-Jun-19 20:30N 40°39' W 074°03'0 0.2
2018-Jun-19 20:00N 40°39' W 074°03'0 0.0
2018-Jun-19 19:30N 40°39' W 074°03'0 0.1
2018-Jun-19 19:00N 40°39' W 074°03'0 0.1
2018-Jun-19 18:30N 40°39' W 074°03'0 0.0
2018-Jun-19 18:01N 40°39' W 074°03'0 0.0
2018-Jun-19 17:30N 40°39' W 074°03'0 0.2
2018-Jun-19 17:01N 40°39' W 074°03'0 0.2
2018-Jun-19 16:31N 40°39' W 074°03'0 0.0
2018-Jun-19 16:00N 40°39' W 074°03'0 0.1
2018-Jun-19 15:30N 40°39' W 074°03'1 2.8
2018-Jun-19 15:01N 40°39' W 074°05'2 4.8
2018-Jun-19 14:31N 40°38' W 074°08'0 0.0
2018-Jun-19 14:00N 40°38' W 074°08'0 0.0
2018-Jun-19 13:30N 40°38' W 074°08'0 0.0
2018-Jun-19 13:00N 40°38' W 074°08'0 0.0
2018-Jun-19 12:30N 40°38' W 074°08'4 7.6
2018-Jun-19 12:00N 40°39' W 074°03'0 0.0
2018-Jun-19 11:30N 40°39' W 074°03'0 0.0
2018-Jun-19 11:00N 40°39' W 074°03'0 0.0
2018-Jun-19 10:30N 40°39' W 074°03'0 0.0
2018-Jun-19 10:00N 40°39' W 074°03'0 0.0
2018-Jun-19 09:30N 40°39' W 074°03'0 0.1
2018-Jun-19 09:01N 40°39' W 074°03'0 0.2
2018-Jun-19 08:31N 40°39' W 074°03'0 0.1
2018-Jun-19 08:01N 40°39' W 074°03'0 0.1
2018-Jun-19 07:31N 40°39' W 074°03'0 0.1
2018-Jun-19 07:01N 40°39' W 074°03'0 0.1
2018-Jun-19 06:30N 40°39' W 074°03'0 0.0
2018-Jun-19 06:01N 40°39' W 074°03'0 0.0
2018-Jun-19 05:30N 40°39' W 074°03'0 0.1
2018-Jun-19 05:00N 40°39' W 074°03'0 0.0
2018-Jun-19 04:31N 40°39' W 074°03'0 0.0
2018-Jun-19 04:00N 40°39' W 074°03'0 0.0
2018-Jun-19 03:30N 40°39' W 074°03'0 0.1
2018-Jun-19 03:00N 40°39' W 074°03'0 0.1
2018-Jun-19 02:30N 40°39' W 074°03'0 0.1
2018-Jun-19 02:01N 40°39' W 074°03'0 0.1
2018-Jun-19 01:30N 40°39' W 074°03'0 0.1
2018-Jun-19 01:00N 40°39' W 074°03'0 0.3
2018-Jun-19 00:31N 40°39' W 074°03'0 0.1
2018-Jun-19 00:01N 40°39' W 074°03'2 3.4
2018-Jun-18 23:31N 40°39' W 074°05'2 4.1
2018-Jun-18 23:00N 40°38' W 074°08'0 0.0
2018-Jun-18 22:31N 40°38' W 074°08'1 1.4
2018-Jun-18 22:00N 40°39' W 074°07'5 9.3
2018-Jun-18 21:31N 40°40' W 074°01'0 0.0
2018-Jun-18 21:00N 40°40' W 074°01'0 0.2
2018-Jun-18 20:30N 40°40' W 074°01'0 0.0
2018-Jun-18 20:00N 40°40' W 074°01'0 0.0
2018-Jun-18 19:31N 40°40' W 074°01'0 0.1
2018-Jun-18 19:00N 40°40' W 074°01'0 0.2
2018-Jun-18 18:30N 40°40' W 074°01'1 2.9
2018-Jun-18 18:00N 40°40' W 074°03'1 1.1
2018-Jun-18 17:30N 40°40' W 074°02'0 0.0
2018-Jun-18 17:00N 40°40' W 074°02'0 0.0
2018-Jun-18 16:30N 40°40' W 074°02'0 0.0
2018-Jun-18 16:01N 40°40' W 074°02'0 0.1
2018-Jun-18 15:30N 40°39' W 074°02'1 1.3
2018-Jun-18 15:01N 40°39' W 074°03'4 7.5
2018-Jun-18 14:31N 40°39' W 074°08'2 4.6
2018-Jun-18 13:59N 40°39' W 074°11'3 1.3
2018-Jun-18 12:05N 40°36' W 074°12'0 0.0
2018-Jun-18 11:59N 40°36' W 074°12'0 0.0
2018-Jun-18 11:11N 40°36' W 074°12'0 0.0
2018-Jun-18 10:50N 40°36' W 074°12'0 0.0
2018-Jun-18 10:27N 40°36' W 074°12'0 0.0
2018-Jun-18 10:00N 40°36' W 074°12'0 0.0
2018-Jun-18 09:30N 40°36' W 074°12'0 0.0
2018-Jun-18 09:00N 40°36' W 074°12'0 0.0
2018-Jun-18 08:29N 40°36' W 074°12'0 0.0
2018-Jun-18 08:00N 40°36' W 074°12'0 0.0
2018-Jun-18 07:30N 40°36' W 074°12'0 0.0
2018-Jun-18 07:00N 40°36' W 074°12'0 0.0
2018-Jun-18 06:30N 40°36' W 074°12'1 0.1
2018-Jun-17 19:08N 40°37' W 074°12'1 6.6
2018-Jun-17 18:59N 40°38' W 074°12'4 6.3
2018-Jun-17 18:26N 40°39' W 074°07'3 6.7
2018-Jun-17 18:01N 40°39' W 074°04'1 1.7
2018-Jun-17 17:30N 40°39' W 074°03'0 0.0
2018-Jun-17 17:01N 40°39' W 074°03'0 0.0
2018-Jun-17 16:30N 40°39' W 074°03'0 0.1
2018-Jun-17 16:00N 40°39' W 074°03'0 0.1
2018-Jun-17 15:26N 40°39' W 074°03'0 0.0
2018-Jun-17 15:00N 40°39' W 074°03'0 0.0
2018-Jun-17 14:30N 40°39' W 074°03'0 0.0
2018-Jun-17 14:00N 40°39' W 074°03'0 0.1
2018-Jun-17 13:30N 40°39' W 074°03'0 0.1
2018-Jun-17 13:01N 40°39' W 074°03'0 0.2
2018-Jun-17 12:30N 40°39' W 074°03'0 0.1
2018-Jun-17 12:00N 40°39' W 074°03'0 0.1
2018-Jun-17 11:30N 40°39' W 074°03'0 0.0
2018-Jun-17 11:01N 40°39' W 074°03'0 0.0
2018-Jun-17 10:30N 40°39' W 074°03'0 0.0
2018-Jun-17 10:01N 40°39' W 074°03'0 0.0
2018-Jun-17 09:29N 40°39' W 074°03'0 0.0
2018-Jun-17 09:01N 40°39' W 074°03'0 0.1
2018-Jun-17 08:30N 40°39' W 074°03'0 0.0
2018-Jun-17 08:00N 40°39' W 074°03'0 0.0
2018-Jun-17 07:31N 40°39' W 074°03'0 0.0
2018-Jun-17 07:00N 40°39' W 074°03'0 0.0
2018-Jun-17 06:31N 40°39' W 074°03'0 0.0
2018-Jun-17 06:01N 40°39' W 074°03'0 0.2
2018-Jun-17 05:30N 40°39' W 074°03'0 0.2
2018-Jun-17 05:00N 40°39' W 074°03'0 0.1
2018-Jun-17 04:31N 40°39' W 074°03'0 0.0
2018-Jun-17 04:01N 40°39' W 074°03'1 2.0
2018-Jun-17 03:30N 40°40' W 074°02'1 2.2
2018-Jun-17 03:00N 40°41' W 074°01'3 5.9
2018-Jun-17 02:31N 40°43' W 073°58'55 7.5
2018-Jun-16 19:05N 41°05' W 072°51'1 9.0
2018-Jun-16 18:58N 41°06' W 072°50'4 9.1
2018-Jun-16 18:31N 41°07' W 072°45'5 9.2
2018-Jun-16 18:00N 41°08' W 072°39'5 9.6
2018-Jun-16 17:31N 41°09' W 072°32'510.5
2018-Jun-16 17:00N 41°10' W 072°26'611.1
2018-Jun-16 16:31N 41°12' W 072°19'611.1
2018-Jun-16 16:00N 41°13' W 072°11'53 9.7
2018-Jun-16 10:34N 41°25' W 071°03'1 9.4
2018-Jun-16 10:26N 41°26' W 071°02'4 9.2
2018-Jun-16 10:00N 41°28' W 070°58'5 9.6
2018-Jun-16 09:30N 41°30' W 070°52'28 8.8
2018-Jun-16 06:17N 41°52' W 070°28'3 9.3
2018-Jun-16 05:58N 41°55' W 070°28'4 9.2
2018-Jun-16 05:30N 41°59' W 070°27'5 9.4
2018-Jun-16 05:01N 42°04' W 070°26'5 9.5
2018-Jun-16 04:30N 42°08' W 070°25'5 9.6
2018-Jun-16 04:00N 42°13' W 070°24'510.0
2018-Jun-16 03:30N 42°18' W 070°24'5 9.6
2018-Jun-16 03:00N 42°23' W 070°23'5 9.8
2018-Jun-16 02:30N 42°28' W 070°22'5 9.6
2018-Jun-16 02:00N 42°32' W 070°20'5 9.4
2018-Jun-16 01:30N 42°37' W 070°19'5 9.1
2018-Jun-16 01:00N 42°42' W 070°18'4 8.9
2018-Jun-16 00:30N 42°46' W 070°18'5 9.2
2018-Jun-16 00:00N 42°51' W 070°16'5 9.4
2018-Jun-15 23:30N 42°55' W 070°15'5 9.3
2018-Jun-15 23:00N 42°60' W 070°14'5 9.1
2018-Jun-15 22:30N 43°04' W 070°13'15 8.8
2018-Jun-15 20:49N 43°19' W 070°11'3 8.8
2018-Jun-15 20:31N 43°22' W 070°10'4 8.8
2018-Jun-15 20:00N 43°26' W 070°09'4 8.8
2018-Jun-15 19:30N 43°30' W 070°08'4 8.8
2018-Jun-15 19:00N 43°35' W 070°09'5 9.3
2018-Jun-15 18:30N 43°38' W 070°13'2 4.0
2018-Jun-15 18:00N 43°39' W 070°16'1 1.8
2018-Jun-15 17:30N 43°38' W 070°17'0 0.0
2018-Jun-15 17:00N 43°38' W 070°17'0 0.0
2018-Jun-15 16:30N 43°38' W 070°17'0 0.0
2018-Jun-15 16:00N 43°38' W 070°17'0 0.0
2018-Jun-15 15:30N 43°38' W 070°17'0 0.0
2018-Jun-15 15:00N 43°38' W 070°17'0 0.0
2018-Jun-15 14:30N 43°38' W 070°17'0 0.0
2018-Jun-15 14:00N 43°38' W 070°17'0 0.0
2018-Jun-15 13:29N 43°38' W 070°17'0 0.0
2018-Jun-15 12:59N 43°38' W 070°17'0 0.0
2018-Jun-15 12:29N 43°38' W 070°17'0 0.0
2018-Jun-15 11:59N 43°38' W 070°17'0 0.0
2018-Jun-15 11:29N 43°38' W 070°17'0 0.0
2018-Jun-15 10:59N 43°38' W 070°17'0 0.0
2018-Jun-15 10:29N 43°38' W 070°17'0 0.0
2018-Jun-15 09:59N 43°38' W 070°17'0 0.0
2018-Jun-15 09:29N 43°38' W 070°17'0 0.0
2018-Jun-15 08:59N 43°38' W 070°17'0 0.0
2018-Jun-15 08:30N 43°38' W 070°17'0 0.0
2018-Jun-15 08:00N 43°38' W 070°17'0 0.0
2018-Jun-15 07:30N 43°38' W 070°17'0 0.0
2018-Jun-15 07:00N 43°38' W 070°17'0 0.0
2018-Jun-15 06:30N 43°38' W 070°17'0 0.0
2018-Jun-15 06:00N 43°38' W 070°17'0 0.0
2018-Jun-15 05:30N 43°38' W 070°17'0 0.0
2018-Jun-15 05:00N 43°38' W 070°17'0 0.0
2018-Jun-15 04:30N 43°38' W 070°17'0 0.0
2018-Jun-15 04:00N 43°38' W 070°17'0 0.1
2018-Jun-15 03:31N 43°38' W 070°17'0 0.2
2018-Jun-15 03:00N 43°38' W 070°17'2 3.8
2018-Jun-15 02:30N 43°39' W 070°15'3 5.4
2018-Jun-15 02:00N 43°37' W 070°12'4 8.5
2018-Jun-15 01:30N 43°34' W 070°09'4 8.1
2018-Jun-15 01:00N 43°30' W 070°08'4 8.6
2018-Jun-15 00:30N 43°26' W 070°09'28 8.5
2018-Jun-14 21:12N 42°58' W 070°14'2 8.3
2018-Jun-14 20:56N 42°56' W 070°15'3 8.1
2018-Jun-14 20:30N 42°52' W 070°16'4 8.0
2018-Jun-14 20:00N 42°48' W 070°16'4 8.1
2018-Jun-14 19:30N 42°44' W 070°17'4 8.2
2018-Jun-14 19:00N 42°40' W 070°18'4 8.2
2018-Jun-14 18:29N 42°36' W 070°19'4 8.5
2018-Jun-14 18:00N 42°32' W 070°20'4 8.4
2018-Jun-14 17:30N 42°28' W 070°20'4 8.4
2018-Jun-14 17:00N 42°24' W 070°21'4 8.5
2018-Jun-14 16:30N 42°19' W 070°22'102 6.0
2018-Jun-13 23:27N 41°14' W 072°07'4 7.8
2018-Jun-13 23:00N 41°13' W 072°11'4 8.7
2018-Jun-13 22:30N 41°11' W 072°17'4 9.1
2018-Jun-13 22:00N 41°10' W 072°23'5 9.5
2018-Jun-13 21:30N 41°09' W 072°29'5 9.8
2018-Jun-13 20:59N 41°08' W 072°36'5 9.9
2018-Jun-13 20:28N 41°07' W 072°42'59 8.6
2018-Jun-13 13:34N 40°47' W 073°56'1 7.6
2018-Jun-13 13:25N 40°46' W 073°57'3 6.9
2018-Jun-13 13:00N 40°43' W 073°58'3 6.9
2018-Jun-13 12:30N 40°41' W 074°01'1 1.2
2018-Jun-13 12:00N 40°40' W 074°02'0 0.3
2018-Jun-13 11:30N 40°40' W 074°02'0 0.2
2018-Jun-13 11:00N 40°40' W 074°02'0 0.8
2018-Jun-13 10:30N 40°40' W 074°03'0 0.9
2018-Jun-13 10:00N 40°40' W 074°03'3 5.5
2018-Jun-13 09:30N 40°39' W 074°06'3 6.6
2018-Jun-13 09:00N 40°39' W 074°11'2 2.0
2018-Jun-13 08:11N 40°38' W 074°12'0 0.1
2018-Jun-13 08:00N 40°38' W 074°12'0 0.0
2018-Jun-13 07:30N 40°38' W 074°12'0 0.0
2018-Jun-13 07:00N 40°38' W 074°12'0 0.0
2018-Jun-13 06:30N 40°38' W 074°12'0 0.0
2018-Jun-13 06:00N 40°38' W 074°12'0 0.0
2018-Jun-13 05:30N 40°38' W 074°12'0 0.0
2018-Jun-13 05:00N 40°38' W 074°12'0 0.0
2018-Jun-13 04:30N 40°38' W 074°12'0 0.0
2018-Jun-13 04:00N 40°38' W 074°12'0 0.0
2018-Jun-13 03:30N 40°38' W 074°12'0 0.0
2018-Jun-13 03:00N 40°38' W 074°12'0 0.0
2018-Jun-13 02:30N 40°38' W 074°12'0 0.0
2018-Jun-13 02:00N 40°38' W 074°12'0 0.0
2018-Jun-13 01:30N 40°38' W 074°12'0 0.0
2018-Jun-13 01:00N 40°38' W 074°12'0 0.0
2018-Jun-13 00:30N 40°38' W 074°12'0 0.0
2018-Jun-13 00:00N 40°38' W 074°12'0 0.0
2018-Jun-12 23:30N 40°38' W 074°12'0 0.0
2018-Jun-12 23:00N 40°38' W 074°12'0 0.0
2018-Jun-12 22:30N 40°38' W 074°12'0 0.0
2018-Jun-12 22:00N 40°38' W 074°12'0 0.0
2018-Jun-12 21:30N 40°38' W 074°12'0 0.0
2018-Jun-12 21:00N 40°38' W 074°12'0 0.0
2018-Jun-12 20:30N 40°38' W 074°12'0 0.0
2018-Jun-12 20:00N 40°38' W 074°12'0 0.0
2018-Jun-12 19:30N 40°38' W 074°12'0 0.0
2018-Jun-12 19:00N 40°38' W 074°12'0 0.0
2018-Jun-12 18:30N 40°38' W 074°12'0 0.0
2018-Jun-12 18:00N 40°38' W 074°12'0 0.0
2018-Jun-12 17:30N 40°38' W 074°12'0 0.0
2018-Jun-12 17:00N 40°38' W 074°12'0 0.0
2018-Jun-12 16:30N 40°38' W 074°12'0 0.0
2018-Jun-12 16:00N 40°38' W 074°12'0 0.0
2018-Jun-12 15:30N 40°38' W 074°12'0 0.0
2018-Jun-12 15:00N 40°38' W 074°12'0 0.0
2018-Jun-12 14:30N 40°38' W 074°12'0 0.0
2018-Jun-12 14:00N 40°38' W 074°12'0 0.0
2018-Jun-12 13:30N 40°38' W 074°12'0 0.0
2018-Jun-12 13:00N 40°38' W 074°12'0 0.0
2018-Jun-12 12:30N 40°38' W 074°12'0 0.0
2018-Jun-12 11:59N 40°38' W 074°12'0 0.0
2018-Jun-12 11:30N 40°38' W 074°12'0 0.0
2018-Jun-12 10:59N 40°38' W 074°12'0 0.0
2018-Jun-12 09:54N 40°38' W 074°12'0 0.0
2018-Jun-12 09:24N 40°38' W 074°12'0 0.0
2018-Jun-12 08:44N 40°38' W 074°12'0 0.1
2018-Jun-12 08:28N 40°38' W 074°12'0 0.0
2018-Jun-12 07:58N 40°38' W 074°12'1 1.1
2018-Jun-12 07:20N 40°38' W 074°12'2 5.3
2018-Jun-12 06:59N 40°39' W 074°09'4 8.2
2018-Jun-12 06:29N 40°39' W 074°04'3 4.9
2018-Jun-12 05:57N 40°40' W 074°01'0 0.0
2018-Jun-12 05:30N 40°40' W 074°01'  

Dump ship's entire track history